Emerald AT72 at Donegal on Feb 4th 2023, temporary runway excursion on landing

Last Update: February 23, 2023 / 19:46:58 GMT/Zulu time

Bookmark this article
Incident Facts

Date of incident
Feb 4, 2023

Classification
Incident

Flight number
EI-3402

Destination
Donegal, Ireland

Aircraft Registration
EI-HDK

Aircraft Type
ATR ATR-72-200

ICAO Type Designator
AT72

Airport ICAO Code
EIDL

An Emerald Airlines Avions de Transport Regional ATR-72-212A on behalf of Aer Lingus, registration EI-HDK performing flight EI-3402 from Dublin to Donegal (Ireland), landed on runway 21 at 13:17L (13:17Z) but veered to the right hand side of the runway temporarily exiting the runway. The aircraft returned onto the runway and vacated the runway without further incident.

The aircraft remained on the ground in Donegal until Feb 20th before returning to Dublin. The aircraft is still on the ground in Dublin on Feb 23rd 2023.

Ireland's AAIU reported the occurrence was rated a serious incident and is being investigated by the AAIU.

Metars:
EIDL 041530Z 31023KT 9999 BKN037 BKN046 08/03 Q1036=
EIDL 041430Z 30016KT 9999 BKN037 09/04 Q1034=
EIDL 041400Z 29017KT 9999 -RA FEW022 OVC037 08/03 Q1034=
EIDL 041330Z 29020KT 9000 -RA BKN025 08/05 Q1033=
EIDL 041300Z 28016KT 8000 -RA FEW025 08/06 Q1032=
EIDL 041230Z 29019KT 9999 -RA FEW013 SCT019 OVC030 08/05 Q1032=
EIDL 041200Z 30020KT 4000 -RA BR BKN011 OVC035 08/06 Q1031=
EIDL 041130Z 29016KT 3000 -RA FEW006 BKN010 OVC035 08/07 Q1030 RERA=
EIDL 041100Z 21015KT 2300 -RA OVC012 09/08 Q1028=
Aircraft Registration Data
Registration mark
EI-HDK
Country of Registration
Ireland
Date of Registration
Gfjgkkljbnbd Subscribe to unlock
Manufacturer
ATR-GIE AVIONS DE TRANSPORT REGIONAL
Aircraft Model / Type
ATR 72-212 A
ICAO Aircraft Type
AT72
Year of Manufacture
Serial Number
Maximum Take off Mass (MTOM) [kg]
Engine Count
Engine
Main Owner
Qlmeebhfbmemdbndbckpjmfhpqcb lenc Subscribe to unlock
Incident Facts

Date of incident
Feb 4, 2023

Classification
Incident

Flight number
EI-3402

Destination
Donegal, Ireland

Aircraft Registration
EI-HDK

Aircraft Type
ATR ATR-72-200

ICAO Type Designator
AT72

Airport ICAO Code
EIDL

This article is published under license from Avherald.com. © of text by Avherald.com.
Article source

You can read 2 more free articles without a subscription.

Subscribe now and continue reading without any limits!

Are you a subscriber? Login
Subscribe

Read unlimited articles and receive our daily update briefing. Gain better insights into what is happening in commercial aviation safety.

Send tip

Support AeroInside by sending a small tip amount.

Related articles

Newest articles

Subscribe today

Are you researching aviation incidents? Get access to AeroInside Insights, unlimited read access and receive the daily newsletter.

Pick your plan and subscribe

Partner

Blockaviation logo

A new way to document and demonstrate airworthiness compliance and aircraft value. Find out more.

ELITE Logo

ELITE Simulation Solutions is a leading global provider of Flight Simulation Training Devices, IFR training software as well as flight controls and related services. Find out more.

Blue Altitude Logo

Your regulation partner, specialists in aviation safety and compliance; providing training, auditing, and consultancy services. Find out more.

AeroInside Blog
Popular aircraft
Airbus A320
Boeing 737-800
Boeing 737-800 MAX
Popular airlines
American Airlines
United
Delta
Air Canada
Lufthansa
British Airways